Time;durP1;ratioP1;P1;durP2;ratioP2;P2;SDS_P1;SDS_P2;PMS_P1;PMS_P2;Temp;Humidity;BMP_temperature;BMP_pressure;BME280_temperature;BME280_humidity;BME280_pressure;Samples;Min_cycle;Max_cycle;Signal;HPM_P1;HPM_P2
2022/12/15 00:41:30;;;;;;;;;;;;;;;2.39;65.67;99487.41;5285432;33;35740;-68
2022/12/15 00:44:32;;;;;;;;;;;;;;;2.84;65.28;99480.41;5271340;33;35890;-84
2022/12/15 00:47:35;;;;;;;;;;;;;;;2.22;66.68;99489.47;5296345;32;35392;-76
2022/12/15 00:50:52;;;;;;;;;;;;;;;2.56;65.94;99482.72;5281231;32;35162;-70
2022/12/15 01:20:42;;;;;;;;;;;;;;;3.03;63.84;99473.06;5276535;33;36824;-82
2022/12/15 01:23:43;;;;;;;;;;;;;;;2.50;66.65;99489.78;5287308;33;36177;-83
2022/12/15 01:26:45;;;;;;;;;;;;;;;2.39;65.95;99485.69;5271816;33;44686;-69
2022/12/15 01:29:47;;;;;;;;;;;;;;;2.64;65.48;99474.78;5296967;32;36251;-68
2022/12/15 01:32:49;;;;;;;;;;;;;;;2.94;64.71;99481.03;5279793;32;35271;-83
2022/12/15 01:35:58;;;;;;;;;;;;;;;3.08;64.35;99483.31;5287698;33;34592;-67
2022/12/15 01:39:00;;;;;;;;;;;;;;;2.57;65.48;99481.81;5258051;33;36007;-83
2022/12/15 01:42:02;;;;;;;;;;;;;;;2.81;64.47;99484.78;5278052;32;35614;-72
2022/12/15 01:45:19;;;;;;;;;;;;;;;2.38;66.53;99486.56;5289023;33;35372;-70
2022/12/15 01:48:24;;;;;;;;;;;;;;;2.25;66.07;99484.22;5275156;32;44480;-84
2022/12/15 01:51:27;;;;;;;;;;;;;;;2.43;66.02;99481.25;5287475;33;35705;-68
2022/12/15 01:54:31;;;;;;;;;;;;;;;1.57;67.73;99485.47;5274229;33;35069;-68
2022/12/15 01:57:32;;;;;;;;;;;;;;;1.88;67.40;99474.56;5281763;33;35363;-69
2022/12/15 02:00:34;;;;;;;;;;;;;;;2.38;66.13;99477.91;5290864;32;35941;-82
2022/12/15 02:03:36;;;;;;;;;;;;;;;2.37;66.47;99468.41;5274678;33;35760;-83
2022/12/15 02:06:38;;;;;;;;;;;;;;;3.00;62.58;99491.28;5286706;33;35676;-83
2022/12/15 02:09:41;;;;;;;;;;;;;;;3.01;62.71;99499.94;5274017;33;35913;-76
2022/12/15 02:12:52;;;;;;;;;;;;;;;1.58;67.09;99488.91;5297810;32;36216;-83
2022/12/15 02:16:17;;;;;;;;;;;;;;;1.77;68.48;99486.88;5283502;32;44839;-83
2022/12/15 02:19:19;;;;;;;;;;;;;;;1.52;68.98;99471.75;5283170;32;45288;-83
2022/12/15 02:22:21;;;;;;;;;;;;;;;2.09;67.10;99488.88;5288537;33;34593;-83
2022/12/15 02:25:44;;;;;;;;;;;;;;;2.52;64.84;99491.47;5272775;33;35369;-83
2022/12/15 02:29:08;;;;;;;;;;;;;;;2.30;66.05;99485.00;5295721;32;43213;-69
2022/12/15 02:32:18;;;;;;;;;;;;;;;2.21;66.89;99488.63;5281793;32;35898;-82
2022/12/15 02:35:24;;;;;;;;;;;;;;;2.34;65.25;99481.47;5282694;32;44802;-83
2022/12/15 02:38:36;;;;;;;;;;;;;;;1.69;67.56;99488.75;5287413;32;35890;-68
2022/12/15 02:41:41;;;;;;;;;;;;;;;1.85;66.98;99485.84;5265087;33;35222;-83
2022/12/15 02:44:43;;;;;;;;;;;;;;;1.52;67.69;99489.87;5299660;32;34865;-68
2022/12/15 02:47:51;;;;;;;;;;;;;;;1.74;68.45;99497.25;5271867;33;44813;-69
2022/12/15 02:51:09;;;;;;;;;;;;;;;2.60;65.56;99492.16;5282524;33;36242;-68
2022/12/15 02:54:29;;;;;;;;;;;;;;;1.89;68.01;99500.44;5288666;33;36291;-83
2022/12/15 02:57:46;;;;;;;;;;;;;;;2.35;64.67;99504.75;5270153;33;35209;-68
2022/12/15 03:00:52;;;;;;;;;;;;;;;2.15;66.46;99509.50;5283878;33;44718;-82
2022/12/15 03:03:54;;;;;;;;;;;;;;;1.86;67.92;99491.88;5276762;33;36414;-84
2022/12/15 03:06:56;;;;;;;;;;;;;;;2.96;64.99;99489.63;5283385;32;35692;-83
2022/12/15 03:10:02;;;;;;;;;;;;;;;2.83;64.23;99485.59;5299263;33;36068;-84
2022/12/15 03:13:04;;;;;;;;;;;;;;;2.58;64.68;99499.13;5282956;32;35354;-71
2022/12/15 03:16:06;;;;;;;;;;;;;;;2.26;66.89;99509.28;5286956;33;34918;-68
2022/12/15 03:19:08;;;;;;;;;;;;;;;2.39;66.63;99510.75;5271400;33;35513;-69
2022/12/15 03:22:10;;;;;;;;;;;;;;;2.98;65.60;99508.66;5294461;32;35202;-70
2022/12/15 03:25:12;;;;;;;;;;;;;;;3.02;64.22;99509.41;5276440;33;34720;-83
2022/12/15 03:28:14;;;;;;;;;;;;;;;3.32;62.28;99513.06;5270970;33;35535;-68
2022/12/15 03:31:15;;;;;;;;;;;;;;;2.77;64.28;99522.06;5283834;33;43676;-84
2022/12/15 03:34:17;;;;;;;;;;;;;;;3.02;64.60;99527.59;5270411;33;35116;-68
2022/12/15 03:37:19;;;;;;;;;;;;;;;1.82;67.81;99526.50;5287153;33;35123;-84
2022/12/15 03:40:21;;;;;;;;;;;;;;;1.70;70.16;99524.97;5252970;33;36153;-84
2022/12/15 03:43:23;;;;;;;;;;;;;;;1.77;69.15;99523.13;5284501;33;36199;-68
2022/12/15 03:46:25;;;;;;;;;;;;;;;2.16;67.04;99512.03;5274569;33;35904;-84
2022/12/15 03:49:27;;;;;;;;;;;;;;;1.66;69.48;99512.94;5271927;33;35854;-69
2022/12/15 03:52:30;;;;;;;;;;;;;;;1.83;69.44;99513.53;5285858;33;36565;-69
2022/12/15 03:55:33;;;;;;;;;;;;;;;1.87;69.33;99517.78;5281593;32;36131;-68
2022/12/15 03:58:35;;;;;;;;;;;;;;;1.83;68.78;99525.62;5298107;33;35655;-69
2022/12/15 04:01:37;;;;;;;;;;;;;;;2.12;68.57;99527.69;5270746;33;35940;-84
2022/12/15 04:04:39;;;;;;;;;;;;;;;1.77;69.30;99534.34;5296747;32;36193;-67
2022/12/15 04:07:41;;;;;;;;;;;;;;;2.06;68.06;99538.16;5277048;33;36075;-68
2022/12/15 04:10:43;;;;;;;;;;;;;;;2.50;65.57;99533.88;5272198;33;34840;-68
2022/12/15 04:13:45;;;;;;;;;;;;;;;2.11;67.37;99539.78;5297168;33;44696;-68
2022/12/15 04:16:47;;;;;;;;;;;;;;;1.40;70.05;99539.25;5271399;33;34706;-83
2022/12/15 04:23:09;;;;;;;;;;;;;;;1.05;73.13;99537.22;5275290;33;35665;-68
2022/12/15 05:33:18;;;;;;;;;;;;;;;2.63;65.86;99641.69;5285858;33;43437;-69
2022/12/15 05:36:20;;;;;;;;;;;;;;;2.89;66.17;99641.19;5271960;33;35961;-84
2022/12/15 05:39:23;;;;;;;;;;;;;;;3.93;61.93;99658.00;5270239;33;33851;-84
2022/12/15 05:42:24;;;;;;;;;;;;;;;1.83;68.18;99668.97;5279204;33;35807;-69
2022/12/15 05:45:26;;;;;;;;;;;;;;;3.15;65.18;99659.69;5289029;32;35024;-70
2022/12/15 05:48:28;;;;;;;;;;;;;;;1.94;68.43;99665.37;5289944;33;35333;-69
2022/12/15 05:51:30;;;;;;;;;;;;;;;2.09;69.93;99671.16;5281776;33;36004;-84
2022/12/15 05:54:32;;;;;;;;;;;;;;;3.18;66.76;99675.25;5299237;32;34229;-68
2022/12/15 05:57:34;;;;;;;;;;;;;;;2.60;67.17;99689.31;5271535;33;37478;-67
2022/12/15 06:00:36;;;;;;;;;;;;;;;3.70;64.00;99702.72;5288513;33;35802;-69
2022/12/15 06:03:38;;;;;;;;;;;;;;;3.07;64.59;99710.09;5282591;33;36010;-85
2022/12/15 06:06:40;;;;;;;;;;;;;;;2.36;67.43;99715.69;5280116;33;35600;-83
2022/12/15 06:09:42;;;;;;;;;;;;;;;2.05;70.49;99726.53;5291569;32;36534;-83
2022/12/15 06:12:44;;;;;;;;;;;;;;;2.39;69.20;99723.44;5270855;33;35496;-68
2022/12/15 06:15:59;;;;;;;;;;;;;;;2.34;69.19;99723.50;5295267;32;45109;-84
2022/12/15 06:19:01;;;;;;;;;;;;;;;3.20;67.05;99725.38;5268391;33;35552;-68
2022/12/15 06:22:03;;;;;;;;;;;;;;;4.29;62.29;99723.88;5291710;32;36054;-78
2022/12/15 06:25:05;;;;;;;;;;;;;;;3.70;63.37;99726.09;5269205;33;35397;-79
2022/12/15 06:28:07;;;;;;;;;;;;;;;3.88;63.20;99731.78;5270977;33;36033;-68
2022/12/15 06:31:10;;;;;;;;;;;;;;;2.79;65.98;99740.91;5282004;33;35356;-79
2022/12/15 06:34:12;;;;;;;;;;;;;;;3.84;63.91;99751.78;5278979;32;35834;-69
2022/12/15 06:37:14;;;;;;;;;;;;;;;4.01;63.06;99751.44;5288224;33;44738;-77
2022/12/15 06:40:16;;;;;;;;;;;;;;;4.02;62.49;99760.94;5256160;33;34821;-78
2022/12/15 06:43:18;;;;;;;;;;;;;;;3.19;65.22;99770.44;5289914;33;36274;-79
2022/12/15 06:46:20;;;;;;;;;;;;;;;2.63;67.35;99758.44;5279018;32;36226;-68
2022/12/15 06:49:22;;;;;;;;;;;;;;;3.83;64.70;99754.44;5281140;32;34827;-68
2022/12/15 06:52:24;;;;;;;;;;;;;;;4.13;62.33;99745.94;5299282;32;34967;-83
2022/12/15 06:55:26;;;;;;;;;;;;;;;3.39;65.39;99761.41;5269597;33;36748;-70
2022/12/15 06:58:28;;;;;;;;;;;;;;;3.12;66.98;99781.81;5293271;33;36295;-66
2022/12/15 07:01:30;;;;;;;;;;;;;;;2.97;66.45;99798.53;5264783;33;36102;-77
2022/12/15 07:04:32;;;;;;;;;;;;;;;3.72;64.90;99788.44;5289791;33;34834;-73
2022/12/15 07:07:34;;;;;;;;;;;;;;;3.07;66.36;99783.62;5277673;32;34898;-69
2022/12/15 07:10:37;;;;;;;;;;;;;;;1.89;69.27;99779.47;5271820;33;35085;-72
2022/12/15 07:13:39;;;;;;;;;;;;;;;2.68;69.29;99799.00;5287171;33;34714;-75
2022/12/15 07:16:41;;;;;;;;;;;;;;;3.80;64.24;99817.75;5274082;33;34822;-77
2022/12/15 07:19:43;;;;;;;;;;;;;;;2.74;67.13;99812.78;5302931;32;35180;-79
2022/12/15 07:22:49;;;;;;;;;;;;;;;3.44;65.82;99806.34;5275229;33;44406;-69
2022/12/15 07:25:51;;;;;;;;;;;;;;;3.49;65.42;99820.09;5285050;33;34705;-75
2022/12/15 07:28:53;;;;;;;;;;;;;;;3.74;64.41;99818.72;5285190;32;36361;-76
2022/12/15 07:31:55;;;;;;;;;;;;;;;3.61;64.64;99826.81;5272052;33;36291;-65
2022/12/15 07:34:57;;;;;;;;;;;;;;;3.46;64.74;99825.34;5293957;32;36620;-96
2022/12/15 07:37:59;;;;;;;;;;;;;;;3.79;64.43;99822.06;5267204;33;33373;-76
2022/12/15 07:41:04;;;;;;;;;;;;;;;2.98;65.84;99830.53;5272721;33;36768;-67
2022/12/15 07:44:06;;;;;;;;;;;;;;;3.88;63.52;99833.19;5271422;33;35049;-70
2022/12/15 07:47:09;;;;;;;;;;;;;;;4.75;61.32;99841.63;5284991;33;33998;-73
2022/12/15 07:50:11;;;;;;;;;;;;;;;4.40;62.59;99839.84;5276143;33;34610;-66
2022/12/15 07:53:13;;;;;;;;;;;;;;;3.69;64.30;99840.50;5271209;32;36296;-66
2022/12/15 07:56:15;;;;;;;;;;;;;;;4.12;63.13;99840.44;5281589;33;44465;-66
2022/12/15 07:59:16;;;;;;;;;;;;;;;4.00;63.46;99848.53;5273614;32;34867;-64
2022/12/15 08:02:18;;;;;;;;;;;;;;;4.77;61.18;99851.13;5286700;32;34917;-66
2022/12/15 08:05:20;;;;;;;;;;;;;;;5.05;60.35;99847.84;5284498;32;35450;-67
2022/12/15 08:08:22;;;;;;;;;;;;;;;5.36;59.48;99840.09;5296360;32;34532;-67
2022/12/15 08:11:25;;;;;;;;;;;;;;;5.61;58.07;99835.09;5279540;32;36572;-69
2022/12/15 08:14:28;;;;;;;;;;;;;;;5.28;58.56;99847.22;5273810;33;34873;-67
2022/12/15 08:17:30;;;;;;;;;;;;;;;4.72;61.25;99858.19;5291000;33;34919;-91
2022/12/15 08:20:32;;;;;;;;;;;;;;;5.25;59.25;99862.97;5279293;33;35798;-67
2022/12/15 08:23:34;;;;;;;;;;;;;;;5.37;57.81;99868.72;5287636;33;33616;-86
2022/12/15 08:26:37;;;;;;;;;;;;;;;5.30;58.97;99881.94;5278028;33;34849;-67
2022/12/15 08:29:40;;;;;;;;;;;;;;;5.10;59.78;99891.12;5294209;32;35493;-69
2022/12/15 08:32:57;;;;;;;;;;;;;;;4.87;60.29;99885.59;5288041;33;36860;-66
2022/12/15 08:36:01;;;;;;;;;;;;;;;4.98;60.58;99890.56;5284199;32;34920;-66
2022/12/15 08:39:03;;;;;;;;;;;;;;;5.35;59.15;99896.56;5272759;32;36186;-67
2022/12/15 08:42:05;;;;;;;;;;;;;;;5.00;60.09;99907.84;5269442;33;34906;-67
2022/12/15 08:45:07;;;;;;;;;;;;;;;4.89;61.09;99897.72;5291672;32;36138;-69
2022/12/15 08:48:09;;;;;;;;;;;;;;;5.56;58.82;99886.47;5288000;32;36300;-84
2022/12/15 08:51:11;;;;;;;;;;;;;;;5.79;58.25;99886.69;5275460;33;36086;-84
2022/12/15 08:54:14;;;;;;;;;;;;;;;5.47;58.96;99903.19;5288501;32;34751;-83
2022/12/15 08:57:16;;;;;;;;;;;;;;;4.89;59.98;99918.53;5286210;32;44524;-83
2022/12/15 09:00:18;;;;;;;;;;;;;;;4.33;62.90;99922.41;5286630;33;36036;-72
2022/12/15 09:03:20;;;;;;;;;;;;;;;4.62;63.17;99924.34;5272004;32;34599;-72
2022/12/15 09:06:23;;;;;;;;;;;;;;;5.85;58.19;99925.66;5287777;33;35756;-71
2022/12/15 09:09:25;;;;;;;;;;;;;;;4.31;62.10;99935.41;5279248;33;34794;-67
2022/12/15 09:12:27;;;;;;;;;;;;;;;3.83;65.10;99936.41;5273716;33;34739;-69
2022/12/15 09:15:29;;;;;;;;;;;;;;;4.33;64.97;99912.00;5284512;33;36632;-66
2022/12/15 09:18:51;;;;;;;;;;;;;;;5.05;60.70;99907.75;5279807;33;45068;-68
2022/12/15 09:21:54;;;;;;;;;;;;;;;5.03;61.43;99909.53;5292679;32;36008;-73
2022/12/15 09:24:56;;;;;;;;;;;;;;;3.91;65.79;99906.75;5280003;32;34821;-78
2022/12/15 09:27:58;;;;;;;;;;;;;;;5.15;61.98;99914.44;5285729;33;34778;-92
2022/12/15 09:31:07;;;;;;;;;;;;;;;4.32;62.84;99929.34;5289886;32;36594;-68
2022/12/15 09:34:10;;;;;;;;;;;;;;;4.26;65.10;99919.06;5278793;32;35623;-92
2022/12/15 09:37:12;;;;;;;;;;;;;;;4.96;62.39;99908.84;5295487;32;36292;-78
2022/12/15 09:40:14;;;;;;;;;;;;;;;4.48;63.45;99921.22;5259210;33;43163;-71
2022/12/15 09:43:23;;;;;;;;;;;;;;;6.08;59.03;99914.63;5302305;32;33644;-75
2022/12/15 09:46:55;;;;;;;;;;;;;;;6.05;58.47;99904.25;5280230;32;44867;-79
2022/12/15 09:49:57;;;;;;;;;;;;;;;5.24;61.67;99906.41;5278512;33;35248;-78
2022/12/15 09:52:59;;;;;;;;;;;;;;;5.68;60.75;99904.41;5294326;32;34849;-80
2022/12/15 09:56:11;;;;;;;;;;;;;;;5.00;60.93;99913.06;5278650;33;35412;-82
2022/12/15 09:59:16;;;;;;;;;;;;;;;4.10;65.67;99899.44;5294686;32;35417;-74
2022/12/15 10:02:36;;;;;;;;;;;;;;;5.90;60.41;99902.91;5280700;32;46133;-68
2022/12/15 10:05:45;;;;;;;;;;;;;;;4.23;64.45;99905.25;5278703;33;34776;-67
2022/12/15 10:09:22;;;;;;;;;;;;;;;4.30;64.71;99906.84;5289481;33;35235;-65
2022/12/15 10:12:25;;;;;;;;;;;;;;;5.41;61.78;99906.00;5281499;33;46552;-76
2022/12/15 10:15:28;;;;;;;;;;;;;;;5.19;61.61;99921.28;5283606;33;36163;-76
2022/12/15 10:18:31;;;;;;;;;;;;;;;5.68;59.67;99923.50;5293161;32;35397;-68
2022/12/15 10:21:33;;;;;;;;;;;;;;;4.99;61.92;99916.56;5274861;33;35578;-68
2022/12/15 10:24:35;;;;;;;;;;;;;;;6.01;59.89;99918.31;5291815;33;34804;-68
2022/12/15 10:28:15;;;;;;;;;;;;;;;6.43;56.95;99915.34;5284127;32;35207;-68
2022/12/15 10:31:28;;;;;;;;;;;;;;;5.90;58.71;99910.75;5292913;33;46451;-78
2022/12/15 10:34:34;;;;;;;;;;;;;;;5.87;59.25;99913.44;5290153;32;35581;-75
2022/12/15 10:37:36;;;;;;;;;;;;;;;5.65;60.56;99920.97;5280908;32;34831;-72
2022/12/15 10:40:43;;;;;;;;;;;;;;;6.11;58.92;99909.31;5275172;33;37047;-68
2022/12/15 10:43:48;;;;;;;;;;;;;;;4.72;62.32;99912.84;5286927;32;44377;-67
2022/12/15 10:47:13;;;;;;;;;;;;;;;5.36;61.88;99907.84;5296215;33;34903;-74
2022/12/15 10:50:22;;;;;;;;;;;;;;;6.37;57.73;99916.38;5288699;32;46641;-69
2022/12/15 10:53:48;;;;;;;;;;;;;;;6.07;58.59;99899.88;5282823;32;35204;-81
2022/12/15 10:56:58;;;;;;;;;;;;;;;5.93;59.17;99895.06;5292586;32;45438;-73
2022/12/15 11:00:12;;;;;;;;;;;;;;;5.66;61.07;99895.75;5281907;32;34694;-67
2022/12/15 11:03:21;;;;;;;;;;;;;;;6.07;59.78;99891.19;5291263;32;34709;-77
2022/12/15 11:06:35;;;;;;;;;;;;;;;5.23;61.51;99902.09;5293390;32;44466;-74
2022/12/15 11:09:37;;;;;;;;;;;;;;;6.53;58.52;99892.44;5287949;32;34646;-74
2022/12/15 11:12:51;;;;;;;;;;;;;;;5.90;58.64;99895.09;5290750;33;36315;-74
2022/12/15 11:16:00;;;;;;;;;;;;;;;6.72;56.95;99910.13;5274130;33;34076;-66
2022/12/15 11:19:08;;;;;;;;;;;;;;;5.68;61.01;99920.06;5293193;32;33591;-68
2022/12/15 11:22:17;;;;;;;;;;;;;;;5.75;60.04;99915.53;5295841;32;35808;-69
2022/12/15 11:25:18;;;;;;;;;;;;;;;5.92;59.58;99905.50;5276502;33;44878;-67
2022/12/15 11:28:22;;;;;;;;;;;;;;;5.53;62.10;99912.63;5288026;33;35936;-65
2022/12/15 11:31:26;;;;;;;;;;;;;;;6.15;59.85;99900.50;5286755;32;36039;-64
2022/12/15 11:34:31;;;;;;;;;;;;;;;5.86;60.77;99893.47;5300260;32;34994;-70
2022/12/15 11:37:36;;;;;;;;;;;;;;;6.85;58.19;99894.06;5281325;33;34871;-67
2022/12/15 11:40:38;;;;;;;;;;;;;;;6.33;59.38;99893.91;5276213;32;34668;-81
2022/12/15 11:43:46;;;;;;;;;;;;;;;6.84;58.09;99905.41;5297900;32;36163;-73
2022/12/15 11:46:51;;;;;;;;;;;;;;;6.94;56.70;99897.22;5281265;32;44419;-79
2022/12/15 11:49:53;;;;;;;;;;;;;;;7.09;56.87;99884.59;5294884;32;34709;-74
2022/12/15 11:53:00;;;;;;;;;;;;;;;6.98;57.74;99901.47;5282225;33;36059;-74
2022/12/15 11:56:05;;;;;;;;;;;;;;;6.35;59.42;99912.97;5301166;32;34830;-78
2022/12/15 11:59:07;;;;;;;;;;;;;;;6.37;59.91;99919.00;5274640;33;35158;-69
2022/12/15 12:02:21;;;;;;;;;;;;;;;6.70;58.44;99926.75;5275962;32;36028;-74
2022/12/15 12:05:42;;;;;;;;;;;;;;;5.19;63.46;99933.47;5290813;33;45360;-69
2022/12/15 12:08:51;;;;;;;;;;;;;;;5.32;63.61;99933.13;5276537;33;34672;-69
2022/12/15 12:12:06;;;;;;;;;;;;;;;5.81;62.35;99931.00;5295226;33;45238;-74
2022/12/15 12:15:12;;;;;;;;;;;;;;;5.39;62.43;99921.66;5286040;32;34742;-70
2022/12/15 12:18:19;;;;;;;;;;;;;;;5.81;62.55;99913.62;5276584;33;34856;-77
2022/12/15 12:21:25;;;;;;;;;;;;;;;4.89;64.58;99922.88;5279868;33;44067;-75
2022/12/15 12:24:43;;;;;;;;;;;;;;;6.11;61.70;99924.09;5277268;33;36554;-75
2022/12/15 12:28:06;;;;;;;;;;;;;;;6.88;58.94;99917.47;5292993;32;44484;-70
2022/12/15 12:31:12;;;;;;;;;;;;;;;6.83;58.61;99915.03;5284052;32;33978;-62
2022/12/15 12:34:36;;;;;;;;;;;;;;;6.69;59.89;99901.50;5285131;32;35727;-72
2022/12/15 12:37:40;;;;;;;;;;;;;;;6.94;59.27;99894.59;5300469;32;35054;-75
2022/12/15 12:40:54;;;;;;;;;;;;;;;6.78;58.93;99901.25;5266888;32;35093;-71
2022/12/15 12:44:00;;;;;;;;;;;;;;;6.91;59.45;99904.31;5282811;33;34868;-69
2022/12/15 12:47:25;;;;;;;;;;;;;;;6.37;61.49;99905.94;5277762;33;35444;-74
2022/12/15 12:50:27;;;;;;;;;;;;;;;5.50;64.82;99899.69;5267998;33;36347;-66
2022/12/15 12:53:31;;;;;;;;;;;;;;;5.78;63.52;99908.47;5298308;32;34973;-64
2022/12/15 12:56:44;;;;;;;;;;;;;;;5.16;65.67;99916.16;5277154;33;35137;-78
2022/12/15 13:00:06;;;;;;;;;;;;;;;4.44;69.23;99914.34;5283585;32;44587;-78
2022/12/15 13:03:09;;;;;;;;;;;;;;;4.54;69.43;99903.72;5288770;32;34801;-73
2022/12/15 13:06:30;;;;;;;;;;;;;;;4.96;68.46;99913.16;5277325;33;36049;-82
2022/12/15 13:09:36;;;;;;;;;;;;;;;5.63;66.34;99922.78;5287891;33;34899;-75
2022/12/15 13:12:54;;;;;;;;;;;;;;;5.91;64.83;99928.12;5283892;32;34802;-75
2022/12/15 13:16:08;;;;;;;;;;;;;;;6.02;65.06;99940.03;5283076;32;35059;-78
2022/12/15 13:19:10;;;;;;;;;;;;;;;5.15;67.47;99948.28;5281018;32;36547;-68
2022/12/15 13:22:30;;;;;;;;;;;;;;;5.28;67.59;99941.94;5279642;32;34681;-67
2022/12/15 13:25:34;;;;;;;;;;;;;;;6.05;64.65;99932.09;5292958;32;34815;-68
2022/12/15 13:28:39;;;;;;;;;;;;;;;5.36;67.62;99944.34;5273955;33;33767;-86
2022/12/15 13:31:45;;;;;;;;;;;;;;;5.06;68.44;99938.09;5284936;33;38958;-75
2022/12/15 13:34:49;;;;;;;;;;;;;;;6.11;65.14;99926.72;5275429;32;45158;-83
2022/12/15 13:37:54;;;;;;;;;;;;;;;6.84;62.51;99921.94;5272481;33;34656;-76
2022/12/15 13:40:56;;;;;;;;;;;;;;;5.81;65.32;99931.87;5288046;32;34788;-73
2022/12/15 13:43:59;;;;;;;;;;;;;;;6.04;65.10;99931.25;5279068;33;34795;-75
2022/12/15 13:47:15;;;;;;;;;;;;;;;6.30;64.76;99937.50;5305719;32;34718;-80
2022/12/15 13:50:21;;;;;;;;;;;;;;;6.18;65.93;99942.19;5300488;32;45325;-69
2022/12/15 13:53:24;;;;;;;;;;;;;;;6.49;64.06;99939.53;5274273;33;34917;-69
2022/12/15 13:56:41;;;;;;;;;;;;;;;6.68;63.68;99938.97;5290933;33;38130;-90
2022/12/15 13:59:44;;;;;;;;;;;;;;;6.37;64.77;99942.47;5275405;33;35158;-78
2022/12/15 14:02:49;;;;;;;;;;;;;;;6.86;63.50;99937.56;5293751;32;44557;-80
2022/12/15 14:05:53;;;;;;;;;;;;;;;6.61;64.57;99948.75;5280652;33;36547;-74
2022/12/15 14:08:55;;;;;;;;;;;;;;;6.02;66.00;99950.47;5291621;32;34617;-69
2022/12/15 14:11:57;;;;;;;;;;;;;;;6.31;65.08;99947.03;5283789;33;33954;-69
2022/12/15 14:14:59;;;;;;;;;;;;;;;6.37;65.96;99942.47;5277259;33;36256;-67
2022/12/15 14:18:03;;;;;;;;;;;;;;;6.51;65.31;99932.53;5293498;32;35881;-67
2022/12/15 14:21:06;;;;;;;;;;;;;;;6.47;64.79;99932.66;5285750;32;35219;-69
2022/12/15 14:24:14;;;;;;;;;;;;;;;4.79;72.53;99947.41;5292546;33;34624;-68
2022/12/15 14:27:36;;;;;;;;;;;;;;;5.27;72.41;99942.78;5281796;33;36734;-68
2022/12/15 14:30:38;;;;;;;;;;;;;;;5.39;72.40;99946.84;5269936;32;35330;-69
2022/12/15 14:33:41;;;;;;;;;;;;;;;6.41;67.59;99938.91;5297381;32;36151;-66
2022/12/15 14:36:43;;;;;;;;;;;;;;;6.33;68.06;99925.22;5268985;33;34799;-68
2022/12/15 14:39:47;;;;;;;;;;;;;;;5.30;72.36;99926.25;5259390;33;44367;-65
2022/12/15 14:42:51;;;;;;;;;;;;;;;5.27;73.13;99932.37;5279242;33;35565;-70
2022/12/15 14:45:55;;;;;;;;;;;;;;;5.63;71.98;99938.41;5286777;33;34742;-71
2022/12/15 14:48:59;;;;;;;;;;;;;;;5.44;72.83;99940.63;5279728;32;34742;-72
2022/12/15 14:52:03;;;;;;;;;;;;;;;5.92;69.65;99950.69;5268912;32;36901;-73
2022/12/15 14:55:24;;;;;;;;;;;;;;;5.27;72.03;99947.16;5292489;32;34691;-71
2022/12/15 14:58:35;;;;;;;;;;;;;;;5.06;74.47;99944.19;5276688;33;35450;-72
2022/12/15 15:01:39;;;;;;;;;;;;;;;5.47;73.03;99939.69;5293030;32;36241;-72
2022/12/15 15:04:42;;;;;;;;;;;;;;;5.94;69.27;99937.63;5276387;33;34515;-74
2022/12/15 15:07:44;;;;;;;;;;;;;;;6.43;68.26;99959.72;5271106;33;36205;-73
2022/12/15 15:10:45;;;;;;;;;;;;;;;6.06;68.14;99952.09;5292704;32;44448;-72
2022/12/15 15:13:47;;;;;;;;;;;;;;;5.66;71.54;99963.53;5270901;33;35997;-72
2022/12/15 15:17:00;;;;;;;;;;;;;;;6.40;67.75;99973.75;5295250;32;35620;-71
2022/12/15 15:20:04;;;;;;;;;;;;;;;5.45;71.39;99972.75;5279826;32;37102;-71
2022/12/15 15:23:06;;;;;;;;;;;;;;;6.62;66.98;99978.31;5276766;33;35462;-72
2022/12/15 15:26:09;;;;;;;;;;;;;;;6.49;66.65;99973.47;5277461;33;35534;-71
2022/12/15 15:29:30;;;;;;;;;;;;;;;5.59;70.31;99962.00;5278279;32;35910;-73
2022/12/15 15:32:32;;;;;;;;;;;;;;;5.91;70.64;99948.13;5294115;32;35571;-72
2022/12/15 15:35:33;;;;;;;;;;;;;;;5.47;72.93;99964.91;5273599;32;35412;-73
2022/12/15 15:38:39;;;;;;;;;;;;;;;5.87;72.39;99946.50;5274318;33;35083;-72
2022/12/15 15:41:41;;;;;;;;;;;;;;;5.39;74.52;99954.66;5277116;32;35325;-71
2022/12/15 15:44:43;;;;;;;;;;;;;;;5.15;76.35;99950.91;5270560;33;36104;-71
2022/12/15 15:47:46;;;;;;;;;;;;;;;5.22;75.94;99956.84;5294761;32;45023;-71
2022/12/15 15:50:47;;;;;;;;;;;;;;;5.04;76.64;99939.91;5283870;32;35986;-72
2022/12/15 15:53:49;;;;;;;;;;;;;;;5.39;74.84;99939.87;5285408;33;35379;-72
2022/12/15 15:56:51;;;;;;;;;;;;;;;5.07;75.89;99938.06;5275234;33;36036;-73
2022/12/15 15:59:54;;;;;;;;;;;;;;;6.10;72.27;99928.47;5285257;33;35318;-72
2022/12/15 16:02:55;;;;;;;;;;;;;;;5.22;74.13;99931.66;5275762;33;35545;-73
2022/12/15 16:05:58;;;;;;;;;;;;;;;6.01;71.32;99922.69;5267796;33;35430;-73
2022/12/15 16:09:00;;;;;;;;;;;;;;;6.02;70.08;99924.37;5286568;33;35073;-72
2022/12/15 16:12:01;;;;;;;;;;;;;;;5.84;72.28;99923.09;5282904;32;35153;-71
2022/12/15 16:15:24;;;;;;;;;;;;;;;5.96;71.51;99931.47;5288268;33;36233;-72
2022/12/15 16:18:26;;;;;;;;;;;;;;;6.55;69.27;99935.03;5273150;33;34877;-72
2022/12/15 16:21:28;;;;;;;;;;;;;;;6.75;68.09;99933.50;5287946;33;35665;-72
2022/12/15 16:24:30;;;;;;;;;;;;;;;6.67;67.15;99942.50;5293161;32;37686;-73
2022/12/15 16:27:32;;;;;;;;;;;;;;;6.55;66.77;99938.50;5273510;33;35658;-72
2022/12/15 16:30:34;;;;;;;;;;;;;;;5.53;72.43;99936.06;5285784;33;36470;-71
2022/12/15 16:33:36;;;;;;;;;;;;;;;5.26;73.27;99933.28;5271169;33;35414;-71
2022/12/15 16:36:38;;;;;;;;;;;;;;;6.31;68.68;99929.66;5287975;33;35413;-71
2022/12/15 16:39:40;;;;;;;;;;;;;;;5.12;74.75;99936.22;5265202;32;36248;-73
2022/12/15 16:42:42;;;;;;;;;;;;;;;5.40;73.73;99945.94;5289951;32;34876;-73
2022/12/15 16:45:46;;;;;;;;;;;;;;;5.89;72.06;99948.16;5280422;33;38870;-71
2022/12/15 16:48:47;;;;;;;;;;;;;;;5.91;71.08;99950.75;5271682;33;35372;-74
2022/12/15 16:51:52;;;;;;;;;;;;;;;5.83;69.87;99952.69;5287690;33;36043;-72
2022/12/15 16:54:54;;;;;;;;;;;;;;;4.67;76.46;99955.50;5271806;33;35242;-72
2022/12/15 16:57:57;;;;;;;;;;;;;;;4.91;76.59;99956.72;5296721;32;35266;-72
2022/12/15 17:01:00;;;;;;;;;;;;;;;5.32;72.84;99960.94;5273236;33;35879;-72
2022/12/15 17:04:02;;;;;;;;;;;;;;;4.67;75.52;99965.91;5278472;33;35946;-73
2022/12/15 17:07:04;;;;;;;;;;;;;;;4.35;77.41;99977.84;5285907;33;35809;-72
2022/12/15 17:10:06;;;;;;;;;;;;;;;4.97;74.11;99961.78;5274085;33;35018;-72
2022/12/15 17:13:23;;;;;;;;;;;;;;;5.67;71.89;99980.91;5299411;32;35020;-72
2022/12/15 17:16:30;;;;;;;;;;;;;;;5.39;73.09;99989.41;5282160;32;35984;-71
2022/12/15 17:19:32;;;;;;;;;;;;;;;4.57;76.48;99984.34;5284890;33;36050;-71
2022/12/15 17:22:34;;;;;;;;;;;;;;;4.40;77.35;99980.38;5275328;33;36190;-72
2022/12/15 17:25:40;;;;;;;;;;;;;;;4.23;78.69;99975.50;5283000;32;35607;-73
2022/12/15 17:29:05;;;;;;;;;;;;;;;4.58;77.99;99983.44;5288521;33;35178;-71
2022/12/15 17:32:09;;;;;;;;;;;;;;;4.43;78.34;99985.50;5282857;32;34751;-71
2022/12/15 17:35:11;;;;;;;;;;;;;;;4.27;78.67;99983.22;5298329;32;36933;-72
2022/12/15 17:38:14;;;;;;;;;;;;;;;4.82;76.04;99976.84;5263587;33;35667;-73
2022/12/15 17:41:16;;;;;;;;;;;;;;;5.07;74.73;99973.69;5273393;32;45114;-72
2022/12/15 17:44:38;;;;;;;;;;;;;;;4.80;75.49;99960.41;5285690;32;36292;-73
2022/12/15 17:47:40;;;;;;;;;;;;;;;4.51;76.96;99976.66;5271382;33;35436;-72
2022/12/15 17:50:48;;;;;;;;;;;;;;;4.84;76.64;99980.28;5286756;33;35610;-72
2022/12/15 17:53:50;;;;;;;;;;;;;;;4.67;76.52;99977.19;5283107;32;44609;-72
2022/12/15 17:56:52;;;;;;;;;;;;;;;3.88;78.63;99976.19;5277432;33;35553;-72
2022/12/15 17:59:54;;;;;;;;;;;;;;;4.89;76.58;99969.75;5278992;32;35559;-74
2022/12/15 18:02:57;;;;;;;;;;;;;;;5.31;75.31;99967.03;5272992;33;35585;-73
2022/12/15 18:06:00;;;;;;;;;;;;;;;5.15;76.27;99971.75;5289590;33;35387;-73
2022/12/15 18:09:02;;;;;;;;;;;;;;;5.06;75.20;99965.00;5285250;32;35242;-74
2022/12/15 18:12:08;;;;;;;;;;;;;;;6.24;69.75;99954.19;5283655;33;35155;-71
2022/12/15 18:15:18;;;;;;;;;;;;;;;5.91;69.88;99956.81;5284171;33;35167;-72
2022/12/15 18:18:20;;;;;;;;;;;;;;;4.38;76.56;99963.91;5274607;33;43516;-72
2022/12/15 18:21:23;;;;;;;;;;;;;;;5.30;75.09;99957.50;5289004;33;38072;-72
2022/12/15 18:24:25;;;;;;;;;;;;;;;5.32;74.37;99964.38;5273571;33;35814;-72
2022/12/15 18:27:27;;;;;;;;;;;;;;;4.86;74.73;99962.87;5288406;33;35179;-72
2022/12/15 18:30:30;;;;;;;;;;;;;;;4.60;76.51;99978.19;5271745;33;36167;-72
2022/12/15 18:33:32;;;;;;;;;;;;;;;5.00;74.23;99956.47;5284366;33;35273;-72
2022/12/15 18:36:35;;;;;;;;;;;;;;;4.67;75.92;99965.91;5275189;33;35374;-72